createdAt,value
2019-02-17T00:01:39.104Z,50.56
2019-02-17T00:04:41.028Z,50.52
2019-02-17T00:07:42.979Z,50.32
2019-02-17T00:10:44.910Z,50.13
2019-02-17T00:13:46.883Z,49.95
2019-02-17T00:16:48.785Z,49.91
2019-02-17T00:19:50.733Z,49.91
2019-02-17T00:22:52.709Z,49.97
2019-02-17T00:25:54.687Z,49.90
2019-02-17T00:28:59.338Z,49.87
2019-02-17T00:32:00.505Z,49.87
2019-02-17T00:35:02.559Z,49.79
2019-02-17T00:38:04.517Z,49.83
2019-02-17T00:41:06.597Z,50.04
2019-02-17T00:44:08.557Z,50.15
2019-02-17T00:47:10.498Z,50.40
2019-02-17T00:50:12.429Z,50.44
2019-02-17T00:53:14.343Z,50.40
2019-02-17T00:56:16.352Z,50.22
2019-02-17T00:59:18.752Z,49.97
2019-02-17T01:02:20.735Z,49.76
2019-02-17T01:05:22.723Z,49.59
2019-02-17T01:08:24.674Z,49.45
2019-02-17T01:11:26.582Z,49.38
2019-02-17T01:14:28.564Z,49.39
2019-02-17T01:17:30.526Z,49.59
2019-02-17T01:20:32.521Z,49.77
2019-02-17T01:23:34.514Z,49.91
2019-02-17T01:26:36.475Z,50.00
2019-02-17T01:29:38.428Z,50.16
2019-02-17T01:32:40.454Z,50.15
2019-02-17T01:35:42.391Z,50.01
2019-02-17T01:38:44.391Z,49.93
2019-02-17T01:41:46.396Z,49.99
2019-02-17T01:44:48.359Z,49.91
2019-02-17T01:47:50.316Z,49.81
2019-02-17T01:50:52.331Z,49.69
2019-02-17T01:53:54.394Z,49.76
2019-02-17T01:56:56.353Z,49.73
2019-02-17T01:59:58.338Z,49.67
2019-02-17T02:03:00.439Z,49.73
2019-02-17T02:06:02.454Z,49.90
2019-02-17T02:09:07.865Z,50.04
2019-02-17T02:12:09.798Z,50.22
2019-02-17T02:15:11.945Z,50.18
2019-02-17T02:18:14.235Z,50.29
2019-02-17T02:21:16.103Z,50.77
2019-02-17T02:24:18.072Z,51.04
2019-02-17T02:27:20.192Z,51.19
2019-02-17T02:30:22.152Z,51.35
2019-02-17T02:33:23.997Z,51.28
2019-02-17T02:36:25.949Z,51.40
2019-02-17T02:39:27.825Z,51.48
2019-02-17T02:42:29.749Z,51.48
2019-02-17T02:45:31.641Z,51.41
2019-02-17T02:48:33.545Z,51.49
2019-02-17T02:51:36.793Z,51.55
2019-02-17T02:54:38.831Z,51.73
2019-02-17T02:57:40.909Z,51.79
2019-02-17T03:00:42.910Z,51.88
2019-02-17T03:03:46.083Z,51.84
2019-02-17T03:06:53.137Z,51.86
2019-02-17T03:09:55.016Z,51.90
2019-02-17T03:12:56.975Z,51.94
2019-02-17T03:15:58.815Z,52.07
2019-02-17T03:19:00.814Z,52.24
2019-02-17T03:22:02.782Z,52.34
2019-02-17T03:25:05.713Z,52.37
2019-02-17T03:28:07.748Z,52.34
2019-02-17T03:31:09.785Z,52.36
2019-02-17T03:34:11.830Z,52.36
2019-02-17T03:37:13.790Z,52.54
2019-02-17T03:40:15.689Z,52.70
2019-02-17T03:43:17.663Z,52.87
2019-02-17T03:46:19.614Z,52.92
2019-02-17T03:49:21.559Z,52.87
2019-02-17T03:52:23.443Z,53.01
2019-02-17T03:55:25.382Z,53.14
2019-02-17T03:58:27.357Z,53.16
2019-02-17T04:01:29.291Z,53.18
2019-02-17T04:04:31.359Z,53.29
2019-02-17T04:07:33.294Z,53.31
2019-02-17T04:10:35.263Z,53.35
2019-02-17T04:13:38.508Z,53.39
2019-02-17T04:16:40.477Z,53.41
2019-02-17T04:19:42.422Z,53.44
2019-02-17T04:22:44.363Z,53.43
2019-02-17T04:25:46.321Z,53.53
2019-02-17T04:28:48.314Z,53.55
2019-02-17T04:31:50.383Z,53.78
2019-02-17T04:34:52.322Z,53.81
2019-02-17T04:37:54.215Z,53.83
2019-02-17T04:40:56.186Z,53.81
2019-02-17T04:43:58.178Z,53.94
2019-02-17T04:47:00.060Z,54.25
2019-02-17T04:50:01.982Z,54.34
2019-02-17T04:53:03.948Z,54.48
2019-02-17T04:56:05.921Z,54.24
2019-02-17T04:59:07.913Z,54.11
2019-02-17T05:02:09.789Z,54.12
2019-02-17T05:05:11.838Z,54.29
2019-02-17T05:08:13.728Z,54.39
2019-02-17T05:11:15.679Z,54.60
2019-02-17T05:14:17.631Z,54.74
2019-02-17T05:17:20.300Z,54.86
2019-02-17T05:20:22.497Z,54.91
2019-02-17T05:23:24.512Z,55.08
2019-02-17T05:26:26.508Z,55.17
2019-02-17T05:29:28.508Z,55.25
2019-02-17T05:32:31.512Z,55.20
2019-02-17T05:35:33.439Z,55.32
2019-02-17T05:38:35.422Z,55.28
2019-02-17T05:41:38.347Z,55.18
2019-02-17T05:44:40.356Z,55.24
2019-02-17T05:47:42.292Z,55.26
2019-02-17T05:50:44.304Z,55.14
2019-02-17T05:53:46.332Z,55.07
2019-02-17T05:56:48.236Z,55.11
2019-02-17T05:59:50.243Z,55.21
2019-02-17T06:02:52.239Z,55.39
2019-02-17T06:05:54.203Z,55.54
2019-02-17T06:08:56.178Z,55.61
2019-02-17T06:11:58.103Z,55.44
2019-02-17T06:15:00.231Z,55.14
2019-02-17T06:18:02.341Z,54.65
2019-02-17T06:21:04.314Z,53.81
2019-02-17T06:24:06.213Z,53.12
2019-02-17T06:27:08.192Z,52.46
2019-02-17T06:30:10.151Z,52.16
2019-02-17T06:33:12.102Z,51.98
2019-02-17T06:36:14.282Z,51.73
2019-02-17T06:39:16.221Z,51.14
2019-02-17T06:42:18.153Z,50.84
2019-02-17T06:45:20.075Z,50.56
2019-02-17T06:48:21.975Z,50.23
2019-02-17T06:51:23.900Z,50.36
2019-02-17T06:54:25.770Z,50.29
2019-02-17T06:57:29.507Z,49.48
2019-02-17T07:00:39.168Z,48.27
2019-02-17T07:03:41.145Z,47.40
2019-02-17T07:06:45.125Z,46.69
2019-02-17T07:09:47.141Z,45.38
2019-02-17T07:12:49.013Z,43.44
2019-02-17T07:15:51.071Z,41.67
2019-02-17T07:18:52.942Z,40.30
2019-02-17T07:21:54.913Z,39.63
2019-02-17T07:24:57.119Z,39.11
2019-02-17T07:27:59.079Z,37.86
2019-02-17T07:31:01.048Z,36.02
2019-02-17T07:34:03.012Z,34.50
2019-02-17T07:37:05.941Z,32.97
2019-02-17T07:40:08.149Z,32.27
2019-02-17T07:43:11.963Z,31.73
2019-02-17T07:46:13.920Z,31.09
2019-02-17T07:49:15.773Z,30.61
2019-02-17T07:52:17.720Z,30.30
2019-02-17T07:55:19.634Z,30.03
2019-02-17T07:58:21.558Z,29.41
2019-02-17T08:01:23.579Z,28.85
2019-02-17T08:04:25.481Z,28.30
2019-02-17T08:07:27.527Z,27.70
2019-02-17T08:10:29.398Z,26.86
2019-02-17T08:13:31.685Z,26.12
2019-02-17T08:16:33.560Z,25.67
2019-02-17T08:19:35.537Z,25.01
2019-02-17T08:22:37.428Z,24.62
2019-02-17T08:25:39.383Z,24.27
2019-02-17T08:28:42.683Z,23.98
2019-02-17T08:31:54.943Z,23.84
2019-02-17T08:34:49.122Z,23.58
2019-02-17T08:37:51.088Z,23.53
2019-02-17T08:40:53.121Z,23.91
2019-02-17T08:43:55.210Z,24.27
2019-02-17T08:46:57.087Z,24.89
2019-02-17T08:49:59.040Z,25.33
2019-02-17T08:53:00.916Z,25.65
2019-02-17T08:56:02.897Z,26.03
2019-02-17T08:59:04.787Z,26.65
2019-02-17T09:02:06.860Z,27.77
2019-02-17T09:05:08.770Z,28.97
2019-02-17T09:08:10.811Z,30.52
2019-02-17T09:11:12.739Z,31.39
2019-02-17T09:14:14.749Z,32.11
2019-02-17T09:17:16.680Z,32.79
2019-02-17T09:20:18.711Z,33.32
2019-02-17T09:23:20.646Z,32.91
2019-02-17T09:26:22.628Z,32.97
2019-02-17T09:29:24.603Z,33.04
2019-02-17T09:32:26.641Z,32.95
2019-02-17T09:35:28.602Z,32.82
2019-02-17T09:38:30.565Z,32.93
2019-02-17T09:41:32.479Z,33.10
2019-02-17T09:44:34.470Z,33.13
2019-02-17T09:47:36.343Z,33.26
2019-02-17T09:50:38.260Z,33.47
2019-02-17T09:53:40.215Z,33.50
2019-02-17T09:56:42.244Z,33.47
2019-02-17T09:59:44.173Z,33.45
2019-02-17T10:02:46.231Z,33.30
2019-02-17T10:05:48.127Z,33.47
2019-02-17T10:08:50.186Z,33.94
2019-02-17T10:11:52.120Z,33.86
2019-02-17T10:14:54.086Z,33.93
2019-02-17T10:17:56.382Z,33.71
2019-02-17T10:20:58.309Z,33.67
2019-02-17T10:24:00.195Z,33.28
2019-02-17T10:27:02.151Z,33.30
2019-02-17T10:30:18.287Z,33.13
2019-02-17T10:33:21.342Z,32.76
2019-02-17T10:36:23.290Z,32.73
2019-02-17T10:39:25.240Z,32.67
2019-02-17T10:42:27.156Z,32.66
2019-02-17T10:45:29.123Z,32.73
2019-02-17T10:48:31.197Z,32.76
2019-02-17T10:51:33.179Z,32.71
2019-02-17T10:54:35.123Z,32.65
2019-02-17T10:57:37.122Z,32.79
2019-02-17T11:00:39.093Z,32.77
2019-02-17T11:03:44.811Z,32.57
2019-02-17T11:06:46.842Z,32.60
2019-02-17T11:09:48.989Z,32.55
2019-02-17T11:12:50.934Z,32.28
2019-02-17T11:15:52.871Z,32.05
2019-02-17T11:18:54.888Z,32.04
2019-02-17T11:21:56.859Z,32.00
2019-02-17T11:24:58.818Z,31.85
2019-02-17T11:28:00.751Z,32.05
2019-02-17T11:31:03.239Z,31.91
2019-02-17T11:34:05.270Z,31.92
2019-02-17T11:37:07.311Z,31.89
2019-02-17T11:40:11.255Z,31.64
2019-02-17T11:43:13.159Z,31.74
2019-02-17T11:46:15.161Z,31.84
2019-02-17T11:49:17.059Z,31.75
2019-02-17T11:52:19.089Z,31.68
2019-02-17T11:55:22.751Z,31.61
2019-02-17T11:58:25.053Z,31.62
2019-02-17T12:01:26.995Z,31.91
2019-02-17T12:04:29.016Z,31.86
2019-02-17T12:07:30.931Z,32.00
2019-02-17T12:10:32.930Z,31.83
2019-02-17T12:13:34.870Z,32.12
2019-02-17T12:16:37.406Z,32.01
2019-02-17T12:19:39.558Z,31.98
2019-02-17T12:22:42.807Z,32.12
2019-02-17T12:26:01.693Z,32.28
2019-02-17T12:29:05.681Z,32.18
2019-02-17T12:32:09.493Z,32.11
2019-02-17T12:35:11.490Z,32.23
2019-02-17T12:38:13.463Z,32.20
2019-02-17T12:41:15.604Z,32.18
2019-02-17T12:44:17.562Z,31.94
2019-02-17T12:47:19.586Z,31.64
2019-02-17T12:50:21.579Z,31.65
2019-02-17T12:53:23.633Z,31.66
2019-02-17T12:56:25.658Z,31.88
2019-02-17T12:59:27.769Z,31.93
2019-02-17T13:02:29.703Z,31.78
2019-02-17T13:05:31.737Z,31.61
2019-02-17T13:08:33.713Z,31.90
2019-02-17T13:11:35.799Z,32.25
2019-02-17T13:14:37.729Z,31.82
2019-02-17T13:17:39.866Z,31.79
2019-02-17T13:20:41.852Z,31.71
2019-02-17T13:23:43.827Z,31.76
2019-02-17T13:26:45.805Z,31.96
2019-02-17T13:29:47.755Z,32.07
2019-02-17T13:32:49.767Z,32.22
2019-02-17T13:35:51.835Z,32.35
2019-02-17T13:38:53.799Z,32.50
2019-02-17T13:41:55.825Z,32.74
2019-02-17T13:44:57.951Z,32.81
2019-02-17T13:48:00.124Z,32.80
2019-02-17T13:51:02.021Z,32.80
2019-02-17T13:54:03.953Z,32.66
2019-02-17T13:57:06.004Z,32.58
2019-02-17T14:00:17.547Z,32.74
2019-02-17T14:03:19.530Z,32.80
2019-02-17T14:06:21.548Z,33.10
2019-02-17T14:09:23.644Z,33.17
2019-02-17T14:12:25.814Z,32.93
2019-02-17T14:15:27.804Z,33.04
2019-02-17T14:18:29.798Z,33.19
2019-02-17T14:21:31.768Z,33.23
2019-02-17T14:24:33.716Z,33.41
2019-02-17T14:27:36.281Z,33.45
2019-02-17T14:30:38.277Z,33.57
2019-02-17T14:33:40.203Z,33.64
2019-02-17T14:36:42.262Z,33.83
2019-02-17T14:39:44.201Z,34.15
2019-02-17T14:42:46.583Z,34.35
2019-02-17T14:45:48.517Z,34.63
2019-02-17T14:48:50.721Z,34.91
2019-02-17T14:51:52.807Z,35.14
2019-02-17T14:54:54.825Z,35.61
2019-02-17T14:58:05.006Z,36.40
2019-02-17T15:01:00.742Z,37.32
2019-02-17T15:04:08.797Z,37.79
2019-02-17T15:07:06.603Z,37.84
2019-02-17T15:10:13.196Z,37.69
2019-02-17T15:13:15.476Z,37.74
2019-02-17T15:16:17.450Z,37.98
2019-02-17T15:19:19.514Z,37.63
2019-02-17T15:22:22.675Z,37.04
2019-02-17T15:25:24.702Z,36.88
2019-02-17T15:28:26.797Z,36.87
2019-02-17T15:31:30.885Z,36.94
2019-02-17T15:34:35.335Z,37.14
2019-02-17T15:37:37.142Z,37.47
2019-02-17T15:40:39.104Z,38.11
2019-02-17T15:43:41.359Z,38.41
2019-02-17T15:46:43.291Z,38.58
2019-02-17T15:49:45.307Z,38.87
2019-02-17T15:52:47.728Z,38.66
2019-02-17T15:55:49.740Z,38.96
2019-02-17T15:58:51.648Z,41.27
2019-02-17T16:01:53.676Z,41.39
2019-02-17T16:04:57.168Z,41.50
2019-02-17T16:07:59.264Z,41.64
2019-02-17T16:11:01.289Z,41.62
2019-02-17T16:14:03.368Z,42.06
2019-02-17T16:17:05.303Z,41.88
2019-02-17T16:20:10.322Z,41.73
2019-02-17T16:23:12.225Z,42.65
2019-02-17T16:26:14.332Z,42.78
2019-02-17T16:29:16.963Z,42.13
2019-02-17T16:32:18.929Z,42.19
2019-02-17T16:35:20.843Z,42.27
2019-02-17T16:38:24.852Z,42.85
2019-02-17T16:41:26.807Z,43.64
2019-02-17T16:44:29.559Z,43.71
2019-02-17T16:47:31.670Z,43.27
2019-02-17T16:50:33.726Z,42.88
2019-02-17T16:53:35.701Z,42.83
2019-02-17T16:56:37.731Z,42.81
2019-02-17T16:59:39.698Z,43.15
2019-02-17T17:02:41.609Z,43.64
2019-02-17T17:05:47.202Z,44.06
2019-02-17T17:08:49.215Z,44.15
2019-02-17T17:11:54.126Z,44.16
2019-02-17T17:14:56.617Z,44.47
2019-02-17T17:17:58.502Z,44.46
2019-02-17T17:21:00.969Z,44.78
2019-02-17T17:24:04.675Z,44.90
2019-02-17T17:27:09.039Z,44.78
2019-02-17T17:30:14.884Z,44.53
2019-02-17T17:33:19.566Z,44.31
2019-02-17T17:36:21.515Z,44.65
2019-02-17T17:39:23.572Z,44.69
2019-02-17T17:42:26.638Z,44.88
2019-02-17T17:45:30.665Z,44.96
2019-02-17T17:48:38.524Z,44.73
2019-02-17T17:51:40.783Z,44.67
2019-02-17T17:54:43.857Z,44.92
2019-02-17T17:57:46.213Z,44.93
2019-02-17T18:00:51.084Z,44.70
2019-02-17T18:03:53.083Z,44.66
2019-02-17T18:06:57.178Z,44.63
2019-02-17T18:10:01.523Z,44.60
2019-02-17T18:13:07.822Z,44.54
2019-02-17T18:16:12.523Z,44.75
2019-02-17T18:19:15.782Z,45.02
2019-02-17T18:22:20.083Z,45.18
2019-02-17T18:25:23.182Z,45.26
2019-02-17T18:28:26.894Z,45.19
2019-02-17T18:31:29.674Z,45.77
2019-02-17T18:34:32.056Z,46.13
2019-02-17T18:37:37.264Z,46.23
2019-02-17T18:40:44.983Z,46.28
2019-02-17T18:43:43.434Z,46.06
2019-02-17T18:46:45.393Z,45.83
2019-02-17T18:49:47.595Z,45.61
2019-02-17T18:52:51.200Z,45.37
2019-02-17T18:55:53.611Z,45.43
2019-02-17T18:58:55.524Z,45.46
2019-02-17T19:01:57.832Z,45.18
2019-02-17T19:05:01.824Z,45.36
2019-02-17T19:08:07.415Z,45.32
2019-02-17T19:11:09.320Z,45.43
2019-02-17T19:14:13.305Z,45.98
2019-02-17T19:17:15.944Z,46.24
2019-02-17T19:20:36.680Z,46.26
2019-02-17T19:23:38.623Z,46.25
2019-02-17T19:26:40.508Z,46.25
2019-02-17T19:29:43.429Z,46.20
2019-02-17T19:32:48.747Z,46.42
2019-02-17T19:35:50.626Z,46.43
2019-02-17T19:38:54.135Z,46.52
2019-02-17T19:41:56.021Z,46.41
2019-02-17T19:44:58.859Z,46.11
2019-02-17T19:48:01.144Z,45.98
2019-02-17T19:51:03.619Z,46.12
2019-02-17T19:54:06.121Z,46.09
2019-02-17T19:57:10.524Z,46.09
2019-02-17T20:00:14.224Z,46.17
2019-02-17T20:03:27.696Z,46.40
2019-02-17T20:06:29.580Z,46.44
2019-02-17T20:09:32.755Z,46.46
2019-02-17T20:12:34.693Z,46.53
2019-02-17T20:15:36.697Z,46.66
2019-02-17T20:18:43.567Z,46.82
2019-02-17T20:21:45.510Z,46.97
2019-02-17T20:24:47.444Z,47.18
2019-02-17T20:27:51.000Z,47.26
2019-02-17T20:30:52.968Z,47.38
2019-02-17T20:33:54.903Z,47.40
2019-02-17T20:36:57.227Z,47.68
2019-02-17T20:39:59.283Z,47.82
2019-02-17T20:43:01.495Z,48.29
2019-02-17T20:46:03.854Z,48.52
2019-02-17T20:49:07.467Z,48.68
2019-02-17T20:52:11.549Z,49.12
2019-02-17T20:55:13.762Z,50.04
2019-02-17T20:58:16.112Z,50.30
2019-02-17T21:01:18.065Z,50.41
2019-02-17T21:04:22.202Z,50.56
2019-02-17T21:07:24.108Z,50.73
2019-02-17T21:10:26.123Z,51.06
2019-02-17T21:13:29.840Z,50.58
2019-02-17T21:16:32.637Z,50.08
2019-02-17T21:19:36.474Z,49.91
2019-02-17T21:22:39.953Z,50.14
2019-02-17T21:25:41.908Z,50.50
2019-02-17T21:28:43.864Z,50.87
2019-02-17T21:31:45.765Z,50.91
2019-02-17T21:34:48.043Z,50.65
2019-02-17T21:37:49.941Z,50.35
2019-02-17T21:40:52.935Z,50.20
2019-02-17T21:43:54.844Z,50.10
2019-02-17T21:46:56.799Z,50.07
2019-02-17T21:49:58.702Z,49.96
2019-02-17T21:53:00.746Z,49.92
2019-02-17T21:56:02.751Z,49.89
2019-02-17T21:59:04.687Z,49.92
2019-02-17T22:02:06.573Z,50.00
2019-02-17T22:05:08.494Z,50.09
2019-02-17T22:08:10.411Z,50.30
2019-02-17T22:11:12.361Z,50.44
2019-02-17T22:14:14.317Z,50.50
2019-02-17T22:17:16.524Z,50.74
2019-02-17T22:20:18.557Z,51.12
2019-02-17T22:23:20.490Z,51.21
2019-02-17T22:26:22.440Z,51.24
2019-02-17T22:29:24.340Z,51.51
2019-02-17T22:32:26.613Z,51.96
2019-02-17T22:35:28.514Z,51.72
2019-02-17T22:38:30.427Z,51.81
2019-02-17T22:41:32.353Z,52.87
2019-02-17T22:44:34.223Z,53.01
2019-02-17T22:47:36.143Z,52.60
2019-02-17T22:50:38.123Z,52.36
2019-02-17T22:53:43.767Z,52.35
2019-02-17T22:56:44.003Z,51.90
2019-02-17T22:59:47.028Z,51.32
2019-02-17T23:02:48.992Z,50.88
2019-02-17T23:05:50.854Z,50.58
2019-02-17T23:08:52.814Z,50.61
2019-02-17T23:11:54.722Z,50.92
2019-02-17T23:14:56.630Z,50.98
2019-02-17T23:17:58.499Z,50.70
2019-02-17T23:21:00.413Z,50.61
2019-02-17T23:24:02.346Z,51.63
2019-02-17T23:27:04.341Z,53.04
2019-02-17T23:30:09.261Z,53.43
2019-02-17T23:33:11.209Z,53.38
2019-02-17T23:36:13.180Z,53.54
2019-02-17T23:39:15.128Z,53.17
2019-02-17T23:42:17.067Z,52.66
2019-02-17T23:45:19.026Z,52.14
2019-02-17T23:48:20.957Z,51.95
2019-02-17T23:51:22.943Z,51.63
2019-02-17T23:54:24.796Z,51.23
2019-02-17T23:57:26.703Z,51.13
